Terminal Aerodrome Forecast
Issued by NWS

Home | Current Version | Previous Version | Text Only | Print | Product List | Glossary On
Versions: 1 2 3 4 5 6 7 8 9 10 11 12 13 14 15 16 17 18 19
014
FTUS44 KLZK 272331
TAFBPK
TAF
KBPK 272331Z 2800/2824 33005KT P6SM FEW035
     FM280400 32004KT P6SM OVC012
     FM281000 VRB02KT P6SM OVC009
     FM281600 10003KT P6SM BKN015
     FM282000 13007KT P6SM FEW025 SCT100=

USA.gov is the U.S. government's official web portal to all federal, state and local government web resources and services.